Sacramento, California
Traffic Map
Current Weather Conditions
Sacramento, California
Overcast
Overcast
14°
Feels Like: 14°
Wind Chill: 14° Ceiling: 6500
Heat Index: 14° Visibility: 10mi
Dew Point: 10° Wind: 10mph
Humidity: 75% Direction: 230° (SW)
Pressure: 29.86in Gusts: 0mph
Raw Report DataKSAC 240553Z 23009KT 10SM BKN065 OVC100 14/10 A2986 RMK AO2 SLP112 T01440100 10233 20144 53010
Traffic Incident Summary
Active as of:
Severity:
Category:
InformationThere was an issue retrieving the traffic information for this location. Please try a different location or try again shortly.
Advertisements
Track Severe Weather on mobile